Terminal Aerodrome Forecast
Issued by NWS Boston, MA

Home | Current Version | Previous Version | Text Only | Print | Product List | Glossary On
Versions: 1 2 3 4 5 6 7 8 9 10 11 12 13 14 15 16 17 18 19 20 21 22
000
FTUS41 KBOX 231848 AAA
TAFPVD
TAF AMD
KPVD 231848Z 2319/2418 03010KT P6SM FEW020 SCT250
     FM240000 02006KT P6SM SCT250
     FM240500 VRB03KT P6SM SCT250
      TEMPO 2408/2411 5SM BR SCT015
     FM241500 05006KT P6SM SCT250=

USA.gov is the U.S. government's official web portal to all federal, state and local government web resources and services.